Ansley, Mississippi
Current Conditions -  °F | °C
As of 6:09 AM on Monday 24 Nov 2014 (Local Time) from KASD Reporting Station
Haze Haze  
Wind Chill: 67°   Ceiling: Unl
Heat Index: 67°   Visibility: 5mi
Dew Point: 64°   Wind: 3mph
Humidity: 90%   Direction: NA
Pressure: 29.81"   Gusts: NA
Location:  30.2253°N, 89.4838°W
Report Text: KASD 241209Z AUTO VRB03KT 5SM BR SCT005 19/18 A2981 RMK AO2 T01940178
Loading
Personal Weather Stations






























Interactive Weather Map New forecast layout! Learn more

10-Day Weather Forecast

Advertisements
Track Severe Weather on mobile